Time;durP1;ratioP1;P1;durP2;ratioP2;P2;SDS_P1;SDS_P2;PMS_P1;PMS_P2;Temp;Humidity;BMP_temperature;BMP_pressure;BME280_temperature;BME280_humidity;BME280_pressure;Samples;Min_cycle;Max_cycle;Signal;HPM_P1;HPM_P2
2023/07/30 17:31:12;;;;;;;1999.90;999.90;;;22.70;71.00;;;;;;5089535;28;20795;-70
2023/07/30 17:33:38;;;;;;;1999.90;999.90;;;22.20;72.40;;;;;;5087967;28;20028;-66
2023/07/30 17:36:04;;;;;;;1999.90;999.90;;;22.10;72.80;;;;;;5067587;28;20056;-68
2023/07/30 17:38:30;;;;;;;1999.90;999.90;;;22.20;75.60;;;;;;5068528;28;20400;-76
2023/07/30 17:40:55;;;;;;;1999.90;999.90;;;22.00;73.20;;;;;;5070967;28;20033;-71
2023/07/30 17:43:22;;;;;;;1999.90;999.90;;;22.10;73.90;;;;;;5070954;28;20029;-67
2023/07/30 17:45:48;;;;;;;1999.90;999.90;;;22.00;75.00;;;;;;5070371;28;20037;-71
2023/07/30 17:48:14;;;;;;;1999.90;999.90;;;22.00;75.00;;;;;;5071041;28;20065;-68
2023/07/30 17:50:39;;;;;;;1999.90;999.90;;;22.00;74.90;;;;;;5070666;28;20390;-67
2023/07/30 17:53:05;;;;;;;1999.90;999.90;;;22.00;74.60;;;;;;5070664;28;20037;-75
2023/07/30 17:55:31;;;;;;;1999.90;999.90;;;21.80;75.80;;;;;;5070416;28;20053;-71
2023/07/30 17:57:57;;;;;;;1999.90;999.90;;;21.80;76.30;;;;;;5068384;28;20793;-67
2023/07/30 18:00:24;;;;;;;1999.90;999.90;;;21.50;76.40;;;;;;5049443;28;20444;-67
2023/07/30 18:02:49;;;;;;;1999.90;999.90;;;21.50;77.70;;;;;;5049142;28;20034;-67
2023/07/30 18:05:15;;;;;;;1999.90;999.90;;;21.30;80.40;;;;;;5050706;28;20400;-72
2023/07/30 18:07:40;;;;;;;1999.90;999.90;;;21.10;80.20;;;;;;5049348;28;20584;-65
2023/07/30 18:10:06;;;;;;;1999.90;999.90;;;21.00;80.30;;;;;;5049829;28;20441;-66
2023/07/30 18:12:32;;;;;;;1999.90;999.90;;;20.90;81.60;;;;;;5052135;28;20448;-67
2023/07/30 18:14:58;;;;;;;1999.90;999.90;;;20.70;82.70;;;;;;5052304;28;20479;-66
2023/07/30 18:17:24;;;;;;;1999.90;999.90;;;20.60;82.40;;;;;;5053963;28;20104;-65
2023/07/30 18:19:50;;;;;;;1999.90;999.90;;;20.50;84.60;;;;;;5051400;28;20037;-65
2023/07/30 18:22:16;;;;;;;1999.90;999.90;;;20.50;84.90;;;;;;5052897;28;20024;-68
2023/07/30 18:24:41;;;;;;;1999.90;999.90;;;20.30;86.10;;;;;;5050168;28;20481;-66
2023/07/30 18:27:07;;;;;;;1999.90;999.90;;;20.20;87.70;;;;;;5050390;28;20038;-66
2023/07/30 18:29:32;;;;;;;1999.90;999.90;;;20.00;87.20;;;;;;5052055;28;20038;-66
2023/07/30 18:32:08;;;;;;;1999.90;999.90;;;19.90;89.60;;;;;;5037695;28;20054;-66
2023/07/30 18:34:37;;;;;;;1999.90;999.90;;;19.80;89.70;;;;;;5047587;28;20389;-67
2023/07/30 18:37:04;;;;;;;1999.90;999.90;;;19.70;89.60;;;;;;5056937;28;20029;-71
2023/07/30 18:39:30;;;;;;;1999.90;999.90;;;19.60;89.40;;;;;;5056589;28;20416;-67
2023/07/30 18:41:55;;;;;;;1999.90;999.90;;;19.50;89.00;;;;;;5055062;28;20030;-68
2023/07/30 18:44:21;;;;;;;1999.90;999.90;;;19.60;88.80;;;;;;5054599;28;20477;-67
2023/07/30 18:46:46;;;;;;;1999.90;999.90;;;19.60;88.50;;;;;;5056667;28;20034;-67
2023/07/30 18:49:12;;;;;;;1999.90;999.90;;;19.60;90.50;;;;;;5056260;28;20076;-67
2023/07/30 18:51:37;;;;;;;1999.90;999.90;;;19.40;90.10;;;;;;5057134;28;20070;-68
2023/07/30 18:54:03;;;;;;;1999.90;999.90;;;19.40;90.10;;;;;;5057244;28;20033;-69
2023/07/30 18:56:29;;;;;;;1999.90;999.90;;;19.20;90.50;;;;;;5062842;28;20038;-69
2023/07/30 18:58:54;;;;;;;1999.90;999.90;;;19.20;90.90;;;;;;5056252;28;20038;-69
2023/07/30 19:01:20;;;;;;;1999.90;999.90;;;19.20;90.10;;;;;;5056060;28;20029;-69
2023/07/30 19:03:47;;;;;;;1999.90;999.90;;;19.20;90.20;;;;;;5056302;28;20043;-69
2023/07/30 19:06:12;;;;;;;1999.90;999.90;;;19.20;90.90;;;;;;5055608;28;20044;-69
2023/07/30 19:08:38;;;;;;;1999.90;999.90;;;19.20;90.90;;;;;;5056222;28;20411;-69
2023/07/30 19:11:04;;;;;;;1999.90;999.90;;;19.00;90.90;;;;;;5055867;28;20061;-69
2023/07/30 19:13:30;;;;;;;1999.90;999.90;;;19.00;91.70;;;;;;5054442;28;20116;-69
2023/07/30 19:15:57;;;;;;;1999.90;999.90;;;18.80;92.60;;;;;;5055836;28;20538;-74
2023/07/30 19:18:23;;;;;;;1999.90;999.90;;;18.60;92.90;;;;;;5054651;28;20041;-69
2023/07/30 19:20:49;;;;;;;1999.90;999.90;;;18.50;94.80;;;;;;5055566;28;20508;-68
2023/07/30 19:23:14;;;;;;;1999.90;999.90;;;18.40;93.70;;;;;;5055615;28;20064;-68
2023/07/30 19:25:50;;;;;;;1999.90;999.90;;;18.30;94.10;;;;;;5055330;28;20050;-68
2023/07/30 19:28:17;;;;;;;1999.90;999.90;;;18.20;94.00;;;;;;5055549;28;20496;-67
2023/07/30 19:30:43;;;;;;;1999.90;999.90;;;18.20;94.50;;;;;;5054123;28;20096;-68
2023/07/30 19:33:09;;;;;;;1999.90;999.90;;;18.20;94.40;;;;;;5055831;28;20447;-68
2023/07/30 19:35:34;;;;;;;1999.90;999.90;;;18.10;95.40;;;;;;5055105;28;20072;-67
2023/07/30 19:38:00;;;;;;;1999.90;999.90;;;17.90;95.40;;;;;;5055736;28;20084;-68
2023/07/30 19:40:25;;;;;;;1999.90;999.90;;;17.90;95.40;;;;;;5054357;28;20416;-68
2023/07/30 19:42:51;;;;;;;1999.90;999.90;;;17.80;96.00;;;;;;5054527;28;20059;-67
2023/07/30 19:45:16;;;;;;;1999.90;999.90;;;17.80;95.80;;;;;;5055193;28;20092;-68
2023/07/30 19:47:42;;;;;;;1999.90;999.90;;;17.70;95.80;;;;;;5054002;28;20087;-68
2023/07/30 19:50:08;;;;;;;1999.90;999.90;;;17.70;96.30;;;;;;5055657;28;20034;-68
2023/07/30 19:52:34;;;;;;;1999.90;999.90;;;17.80;96.00;;;;;;5055630;28;20029;-68
2023/07/30 19:54:59;;;;;;;1999.90;999.90;;;17.90;95.70;;;;;;5054608;28;20041;-67
2023/07/30 19:57:25;;;;;;;1999.90;999.90;;;18.00;96.10;;;;;;5055454;28;20089;-68
2023/07/30 19:59:51;;;;;;;1999.90;999.90;;;18.00;95.60;;;;;;5055255;28;20388;-68
2023/07/30 20:02:17;;;;;;;1999.90;999.90;;;17.90;96.20;;;;;;5055393;28;20040;-67
2023/07/30 20:04:42;;;;;;;1999.90;999.90;;;17.90;96.10;;;;;;5054898;28;20404;-68
2023/07/30 20:07:08;;;;;;;1999.90;999.90;;;17.90;96.20;;;;;;5055096;28;20029;-69
2023/07/30 20:09:35;;;;;;;1999.90;999.90;;;17.60;96.70;;;;;;5055213;28;20038;-69
2023/07/30 20:12:01;;;;;;;1999.90;999.90;;;17.60;97.60;;;;;;5055287;28;20034;-69
2023/07/30 20:14:27;;;;;;;1999.90;999.90;;;17.60;97.40;;;;;;5053112;28;20041;-69
2023/07/30 20:16:52;;;;;;;1999.90;999.90;;;17.60;96.80;;;;;;5055094;28;20030;-70
2023/07/30 20:19:18;;;;;;;1999.90;999.90;;;17.60;96.90;;;;;;5054901;28;20041;-69
2023/07/30 20:21:44;;;;;;;1999.90;999.90;;;17.60;97.50;;;;;;5055176;28;20078;-69
2023/07/30 20:24:10;;;;;;;1999.90;999.90;;;17.70;96.00;;;;;;5054426;28;20038;-67
2023/07/30 20:26:35;;;;;;;1999.90;999.90;;;17.80;97.00;;;;;;5054932;28;20512;-69
2023/07/30 20:29:01;;;;;;;1999.90;999.90;;;17.90;96.00;;;;;;5054288;28;20539;-69
2023/07/30 20:31:27;;;;;;;1999.90;999.90;;;17.90;95.60;;;;;;5053444;28;20029;-66
2023/07/30 20:33:52;;;;;;;1999.90;999.90;;;18.00;96.20;;;;;;5054622;28;20121;-68
2023/07/30 20:36:18;;;;;;;1999.90;999.90;;;18.00;95.50;;;;;;5054557;28;20435;-66
2023/07/30 20:38:43;;;;;;;1999.90;999.90;;;18.00;96.40;;;;;;5054984;28;20085;-66
2023/07/30 20:41:10;;;;;;;1999.90;999.90;;;17.90;96.50;;;;;;5054825;28;20029;-66
2023/07/30 20:43:40;;;;;;;1999.90;999.90;;;18.10;95.70;;;;;;5053256;28;20497;-67
2023/07/30 20:46:13;;;;;;;1999.90;999.90;;;17.90;95.70;;;;;;5053036;28;20516;-66
2023/07/30 20:48:40;;;;;;;1999.90;999.90;;;18.00;95.70;;;;;;5054555;28;20031;-66
2023/07/30 20:51:07;;;;;;;1999.90;999.90;;;17.90;95.80;;;;;;5054602;28;20038;-66
2023/07/30 20:53:33;;;;;;;1999.90;999.90;;;17.90;96.30;;;;;;5054447;28;20033;-66
2023/07/30 20:55:59;;;;;;;1999.90;999.90;;;17.90;96.10;;;;;;5053968;28;20095;-67
2023/07/30 20:58:25;;;;;;;1999.90;999.90;;;17.90;95.70;;;;;;5054503;28;20509;-67
2023/07/30 21:00:51;;;;;;;1999.90;999.90;;;17.90;96.10;;;;;;5054485;28;20040;-67
2023/07/30 21:03:16;;;;;;;1999.90;999.90;;;17.80;96.80;;;;;;5052906;28;20104;-67
2023/07/30 21:05:42;;;;;;;1999.90;999.90;;;17.70;96.90;;;;;;5053884;28;20030;-66
2023/07/30 21:08:07;;;;;;;1999.90;999.90;;;17.50;97.00;;;;;;5048430;28;20069;-67
2023/07/30 21:10:33;;;;;;;1999.90;999.90;;;17.40;97.40;;;;;;5042380;28;20041;-68
2023/07/30 21:12:58;;;;;;;1999.90;999.90;;;17.30;97.90;;;;;;5034262;28;20297;-67
2023/07/30 21:15:24;;;;;;;1999.90;999.90;;;17.20;98.20;;;;;;5033735;28;20471;-67
2023/07/30 21:17:49;;;;;;;1999.90;999.90;;;17.00;99.90;;;;;;5034051;28;20516;-68
2023/07/30 21:20:16;;;;;;;1999.90;999.90;;;16.90;99.40;;;;;;5033614;28;20038;-66
2023/07/30 21:22:41;;;;;;;1999.90;999.90;;;16.80;99.90;;;;;;5034387;28;20060;-70
2023/07/30 21:25:07;;;;;;;1999.90;999.90;;;16.80;99.90;;;;;;5033926;28;20067;-67
2023/07/30 21:27:32;;;;;;;1999.90;999.90;;;16.70;99.70;;;;;;5034171;28;20081;-67
2023/07/30 21:29:58;;;;;;;1999.90;999.90;;;16.70;99.90;;;;;;5032505;28;20084;-67
2023/07/30 21:32:23;;;;;;;1999.90;999.90;;;16.80;99.30;;;;;;5034201;28;20034;-66
2023/07/30 21:34:49;;;;;;;1999.90;999.90;;;16.70;99.60;;;;;;5033610;28;20034;-67
2023/07/30 21:37:15;;;;;;;1999.90;999.90;;;16.60;99.90;;;;;;5034260;28;20393;-67
2023/07/30 21:39:40;;;;;;;1999.90;999.90;;;16.60;99.90;;;;;;5033998;28;20046;-67
2023/07/30 21:42:06;;;;;;;1999.90;999.90;;;16.60;99.90;;;;;;5034074;28;20045;-67
2023/07/30 21:44:32;;;;;;;1999.90;999.90;;;16.50;99.90;;;;;;5033737;28;20042;-67
2023/07/30 21:46:58;;;;;;;1999.90;999.90;;;16.50;99.90;;;;;;5034275;28;20489;-67
2023/07/30 21:49:23;;;;;;;1999.90;999.90;;;16.60;99.90;;;;;;5033738;28;20038;-67
2023/07/30 21:51:49;;;;;;;1999.90;999.90;;;16.60;99.90;;;;;;5033939;28;20037;-66
2023/07/30 21:54:14;;;;;;;1999.90;999.90;;;16.70;99.90;;;;;;5033160;28;20100;-66
2023/07/30 21:56:40;;;;;;;1999.90;999.90;;;16.60;99.90;;;;;;5034134;28;20030;-68
2023/07/30 21:59:05;;;;;;;1999.90;999.90;;;16.60;99.90;;;;;;5033978;28;20042;-67
2023/07/30 22:01:31;;;;;;;1999.90;999.90;;;16.60;99.90;;;;;;5033823;28;20073;-66
2023/07/30 22:03:59;;;;;;;1999.90;999.90;;;16.50;99.90;;;;;;5033308;28;20434;-68
2023/07/30 22:06:24;;;;;;;1999.90;999.90;;;16.50;99.90;;;;;;5035402;28;20034;-69
2023/07/30 22:08:50;;;;;;;1999.90;999.90;;;16.40;99.90;;;;;;5037180;28;20038;-67
2023/07/30 22:11:16;;;;;;;1999.90;999.90;;;16.40;99.90;;;;;;5037263;28;20116;-67
2023/07/30 22:13:42;;;;;;;1999.90;999.90;;;16.50;99.90;;;;;;5036986;28;20044;-67
2023/07/30 22:16:08;;;;;;;1999.90;999.90;;;16.60;99.90;;;;;;5036638;28;20030;-67
2023/07/30 22:18:33;;;;;;;1999.90;999.90;;;16.70;99.90;;;;;;5036964;28;20089;-67
2023/07/30 22:20:59;;;;;;;1999.90;999.90;;;16.70;99.90;;;;;;5036913;28;20037;-67
2023/07/30 22:23:25;;;;;;;1999.90;999.90;;;16.70;99.90;;;;;;5035370;28;20073;-67
2023/07/30 22:25:54;;;;;;;1999.90;999.90;;;16.70;99.90;;;;;;5036604;28;20486;-67
2023/07/30 22:28:20;;;;;;;1999.90;999.90;;;16.80;99.90;;;;;;5036737;28;20045;-68
2023/07/30 22:30:45;;;;;;;1999.90;999.90;;;16.80;99.90;;;;;;5036663;28;20049;-67
2023/07/30 22:33:11;;;;;;;1999.90;999.90;;;16.80;99.90;;;;;;5036497;28;20048;-67
2023/07/30 22:35:36;;;;;;;1999.90;999.90;;;16.90;99.90;;;;;;5036595;28;20105;-68
2023/07/30 22:38:02;;;;;;;1999.90;999.90;;;17.00;99.90;;;;;;5036537;28;20048;-66
2023/07/30 22:40:29;;;;;;;1999.90;999.90;;;17.00;99.90;;;;;;5036573;28;20041;-67
2023/07/30 22:42:55;;;;;;;1999.90;999.90;;;17.10;99.90;;;;;;5036946;28;20030;-67
2023/07/30 22:45:20;;;;;;;1999.90;999.90;;;17.10;99.90;;;;;;5036009;28;20367;-67
2023/07/30 22:47:46;;;;;;;1999.90;999.90;;;17.00;99.90;;;;;;5036679;28;20038;-67
2023/07/30 22:50:14;;;;;;;1999.90;999.90;;;17.00;99.90;;;;;;5036547;28;20044;-68
2023/07/30 22:52:39;;;;;;;1999.90;999.90;;;17.00;99.90;;;;;;5036324;28;20938;-69
2023/07/30 22:55:05;;;;;;;1999.90;999.90;;;17.00;99.90;;;;;;5035900;28;20037;-67
2023/07/30 22:57:31;;;;;;;1999.90;999.90;;;16.90;99.90;;;;;;5036671;28;20445;-67
2023/07/30 22:59:56;;;;;;;1999.90;999.90;;;17.00;99.90;;;;;;5036345;28;20072;-68
2023/07/30 23:02:22;;;;;;;1999.90;999.90;;;17.00;99.90;;;;;;5036553;28;20134;-67
2023/07/30 23:04:47;;;;;;;1999.90;999.90;;;17.10;99.90;;;;;;5035926;28;20472;-67
2023/07/30 23:07:13;;;;;;;1999.90;999.90;;;17.10;99.90;;;;;;5036380;28;20030;-67
2023/07/30 23:09:38;;;;;;;1999.90;999.90;;;17.10;99.90;;;;;;5036512;28;20037;-67
2023/07/30 23:12:04;;;;;;;1999.90;999.90;;;17.00;99.90;;;;;;5036232;28;20366;-70
2023/07/30 23:14:30;;;;;;;1999.90;999.90;;;16.90;99.90;;;;;;5035657;28;20117;-70
2023/07/30 23:16:55;;;;;;;1999.90;999.90;;;16.90;99.90;;;;;;5035947;28;20202;-69
2023/07/30 23:19:21;;;;;;;1999.90;999.90;;;16.90;99.90;;;;;;5034158;28;20038;-70
2023/07/30 23:21:46;;;;;;;1999.90;999.90;;;16.80;99.90;;;;;;5035961;28;20030;-70
2023/07/30 23:24:12;;;;;;;1999.90;999.90;;;16.70;99.90;;;;;;5035469;28;20037;-70
2023/07/30 23:26:38;;;;;;;1999.90;999.90;;;16.70;99.90;;;;;;5036226;28;20026;-70
2023/07/30 23:29:03;;;;;;;1999.90;999.90;;;16.70;99.90;;;;;;5035705;28;20049;-70
2023/07/30 23:31:29;;;;;;;1999.90;999.90;;;16.70;99.90;;;;;;5036126;28;20034;-69
2023/07/30 23:33:54;;;;;;;1999.90;999.90;;;16.70;99.90;;;;;;5035793;28;20033;-69
2023/07/30 23:36:20;;;;;;;1999.90;999.90;;;16.60;99.90;;;;;;5035765;28;20026;-70
2023/07/30 23:38:45;;;;;;;1999.90;999.90;;;16.60;99.90;;;;;;5068442;23;20053;-70
2023/07/30 23:41:11;;;;;;;1999.90;999.90;;;16.70;99.90;;;;;;5096247;28;20115;-70
2023/07/30 23:43:36;;;;;;;1999.90;999.90;;;16.70;99.90;;;;;;5096283;28;20033;-70
2023/07/30 23:46:02;;;;;;;1999.90;999.90;;;16.70;99.90;;;;;;5096139;28;20032;-73
2023/07/30 23:48:28;;;;;;;1999.90;999.90;;;16.60;99.90;;;;;;5096254;28;20032;-72
2023/07/30 23:50:54;;;;;;;1999.90;999.90;;;16.60;99.90;;;;;;5095870;28;20033;-73
2023/07/30 23:53:19;;;;;;;1999.90;999.90;;;16.70;99.90;;;;;;5096140;28;20101;-73
2023/07/30 23:55:45;;;;;;;1999.90;999.90;;;16.60;99.90;;;;;;5095994;28;20506;-73
2023/07/30 23:58:10;;;;;;;1999.90;999.90;;;16.60;99.90;;;;;;5096150;28;20115;-72
